createdAt,value
2023-03-02T00:00:25.357Z,99.99
2023-03-02T00:01:25.065Z,99.99
2023-03-02T00:02:25.474Z,99.99
2023-03-02T00:03:25.132Z,99.99
2023-03-02T00:04:24.997Z,99.99
2023-03-02T00:05:25.237Z,99.99
2023-03-02T00:06:25.194Z,99.99
2023-03-02T00:07:24.929Z,99.99
2023-03-02T00:08:24.895Z,99.99
2023-03-02T00:09:25.128Z,99.99
2023-03-02T00:10:25.110Z,99.99
2023-03-02T00:11:25.116Z,99.99
2023-03-02T00:12:24.810Z,99.99
2023-03-02T00:13:24.797Z,99.99
2023-03-02T00:14:25.019Z,99.99
2023-03-02T00:15:24.997Z,99.99
2023-03-02T00:16:25.179Z,99.99
2023-03-02T00:17:24.945Z,99.99
2023-03-02T00:18:24.938Z,99.99
2023-03-02T00:19:24.953Z,99.99
2023-03-02T00:20:24.632Z,99.99
2023-03-02T00:21:24.899Z,99.99
2023-03-02T00:22:24.842Z,99.99
2023-03-02T00:23:24.562Z,99.99
2023-03-02T00:24:24.534Z,99.99
2023-03-02T00:25:24.810Z,99.99
2023-03-02T00:26:24.757Z,99.99
2023-03-02T00:27:24.743Z,99.99
2023-03-02T00:28:24.728Z,99.99
2023-03-02T00:29:24.432Z,99.99
2023-03-02T00:30:24.408Z,99.99
2023-03-02T00:31:24.463Z,99.99
2023-03-02T00:32:24.814Z,99.99
2023-03-02T00:33:24.605Z,99.99
2023-03-02T00:34:24.577Z,99.99
2023-03-02T00:35:24.397Z,99.99
2023-03-02T00:36:24.550Z,99.99
2023-03-02T00:37:24.544Z,99.99
2023-03-02T00:38:24.524Z,99.99
2023-03-02T00:39:24.229Z,99.99
2023-03-02T00:40:24.442Z,99.99
2023-03-02T00:41:24.424Z,99.99
2023-03-02T00:42:24.433Z,99.99
2023-03-02T00:43:24.390Z,99.99
2023-03-02T00:44:24.095Z,99.99
2023-03-02T00:45:24.358Z,99.99
2023-03-02T00:46:24.412Z,99.99
2023-03-02T00:47:24.303Z,99.99
2023-03-02T00:48:24.271Z,99.99
2023-03-02T00:49:24.248Z,99.99
2023-03-02T00:50:24.228Z,99.99
2023-03-02T00:51:24.245Z,99.99
2023-03-02T00:52:24.363Z,99.99
2023-03-02T00:53:24.356Z,99.99
2023-03-02T00:54:24.307Z,99.99
2023-03-02T00:55:24.028Z,99.99
2023-03-02T00:56:24.263Z,99.99
2023-03-02T00:57:24.243Z,99.99
2023-03-02T00:58:23.968Z,99.99
2023-03-02T00:59:23.940Z,99.99
2023-03-02T01:00:24.174Z,99.99
2023-03-02T01:01:24.708Z,99.99
2023-03-02T01:02:24.251Z,99.99
2023-03-02T01:03:24.250Z,99.99
2023-03-02T01:04:23.820Z,99.99
2023-03-02T01:05:24.058Z,99.99
2023-03-02T01:06:24.044Z,99.99
2023-03-02T01:07:24.077Z,99.99
2023-03-02T01:08:23.734Z,99.99
2023-03-02T01:09:24.004Z,99.99
2023-03-02T01:10:23.702Z,99.99
2023-03-02T01:11:23.934Z,99.99
2023-03-02T01:12:23.942Z,99.99
2023-03-02T01:13:23.886Z,99.99
2023-03-02T01:14:23.885Z,99.99
2023-03-02T01:15:23.586Z,99.99
2023-03-02T01:16:23.727Z,99.99
2023-03-02T01:17:23.542Z,99.99
2023-03-02T01:18:23.516Z,99.99
2023-03-02T01:19:23.755Z,99.99
2023-03-02T01:20:23.726Z,99.99
2023-03-02T01:21:23.701Z,99.99
2023-03-02T01:22:23.425Z,99.99
2023-03-02T01:23:23.425Z,99.99
2023-03-02T01:24:23.651Z,99.99
2023-03-02T01:25:23.652Z,99.99
2023-03-02T01:26:23.596Z,99.99
2023-03-02T01:27:23.576Z,99.99
2023-03-02T01:28:23.562Z,99.99
2023-03-02T01:29:23.537Z,99.99
2023-03-02T01:30:23.504Z,99.99
2023-03-02T01:31:23.590Z,99.99
2023-03-02T01:32:23.606Z,99.99
2023-03-02T01:33:23.199Z,99.99
2023-03-02T01:34:23.433Z,99.99
2023-03-02T01:35:23.506Z,99.99
2023-03-02T01:36:23.114Z,99.99
2023-03-02T01:37:23.378Z,99.99
2023-03-02T01:38:23.489Z,99.99
2023-03-02T01:39:23.328Z,99.99
2023-03-02T01:40:23.025Z,99.99
2023-03-02T01:41:23.287Z,99.99
2023-03-02T01:42:23.249Z,99.99
2023-03-02T01:43:23.218Z,99.99
2023-03-02T01:44:23.191Z,99.99
2023-03-02T01:45:23.241Z,99.99
2023-03-02T01:46:23.151Z,99.99
2023-03-02T01:47:23.129Z,99.99
2023-03-02T01:48:23.099Z,99.99
2023-03-02T01:49:23.080Z,99.99
2023-03-02T01:50:23.055Z,99.99
2023-03-02T01:51:22.772Z,99.99
2023-03-02T01:52:23.045Z,99.99
2023-03-02T01:53:22.996Z,99.99
2023-03-02T01:54:23.188Z,99.99
2023-03-02T01:55:22.957Z,99.99
2023-03-02T01:56:22.919Z,99.99
2023-03-02T01:57:22.948Z,99.99
2023-03-02T01:58:22.875Z,99.99
2023-03-02T01:59:22.853Z,99.99
2023-03-02T02:00:22.823Z,99.99
2023-03-02T02:01:22.945Z,99.99
2023-03-02T02:02:22.782Z,99.99
2023-03-02T02:03:22.766Z,99.99
2023-03-02T02:04:22.867Z,99.99
2023-03-02T02:05:22.729Z,99.99
2023-03-02T02:06:22.433Z,99.99
2023-03-02T02:07:22.673Z,99.99
2023-03-02T02:08:22.650Z,99.99
2023-03-02T02:09:22.632Z,99.99
2023-03-02T02:10:22.624Z,99.99
2023-03-02T02:11:23.018Z,99.99
2023-03-02T02:12:22.699Z,99.99
2023-03-02T02:13:22.991Z,99.99
2023-03-02T02:14:22.962Z,99.99
2023-03-02T02:15:22.908Z,99.99
2023-03-02T02:16:23.501Z,99.99
2023-03-02T02:17:23.411Z,99.99
2023-03-02T02:18:23.429Z,99.99
2023-03-02T02:19:23.111Z,99.99
2023-03-02T02:20:23.358Z,99.99
2023-03-02T02:21:23.063Z,99.99
2023-03-02T02:22:23.043Z,99.99
2023-03-02T02:23:23.287Z,99.99
2023-03-02T02:24:23.012Z,99.99
2023-03-02T02:25:23.235Z,99.99
2023-03-02T02:26:23.206Z,99.99
2023-03-02T02:27:22.982Z,99.99
2023-03-02T02:28:23.167Z,99.99
2023-03-02T02:29:23.183Z,99.99
2023-03-02T02:30:23.129Z,99.99
2023-03-02T02:31:23.228Z,99.99
2023-03-02T02:32:23.409Z,99.99
2023-03-02T02:33:22.805Z,99.99
2023-03-02T02:34:23.089Z,99.99
2023-03-02T02:35:23.156Z,99.99
2023-03-02T02:36:23.010Z,99.99
2023-03-02T02:37:22.709Z,99.99
2023-03-02T02:38:22.947Z,99.99
2023-03-02T02:39:22.663Z,99.99
2023-03-02T02:40:23.228Z,99.99
2023-03-02T02:41:23.192Z,99.99
2023-03-02T02:42:23.165Z,99.99
2023-03-02T02:43:23.168Z,99.99
2023-03-02T02:44:22.869Z,99.99
2023-03-02T02:45:23.126Z,99.99
2023-03-02T02:46:23.184Z,99.99
2023-03-02T02:47:23.073Z,99.99
2023-03-02T02:48:22.775Z,99.99
2023-03-02T02:49:23.028Z,99.99
2023-03-02T02:50:22.728Z,99.99
2023-03-02T02:51:22.701Z,99.99
2023-03-02T02:52:22.953Z,99.99
2023-03-02T02:53:22.918Z,99.99
2023-03-02T02:54:22.902Z,99.99
2023-03-02T02:55:22.885Z,99.99
2023-03-02T02:56:22.856Z,99.99
2023-03-02T02:57:22.568Z,99.99
2023-03-02T02:58:22.558Z,99.99
2023-03-02T02:59:22.556Z,99.99
2023-03-02T03:00:22.767Z,99.99
2023-03-02T03:01:22.918Z,99.99
2023-03-02T03:02:22.461Z,99.99
2023-03-02T03:03:22.436Z,99.99
2023-03-02T03:04:22.876Z,99.99
2023-03-02T03:05:22.650Z,99.99
2023-03-02T03:06:22.378Z,99.99
2023-03-02T03:07:22.626Z,99.99
2023-03-02T03:08:22.324Z,99.99
2023-03-02T03:09:22.653Z,99.99
2023-03-02T03:10:22.285Z,99.99
2023-03-02T03:11:22.508Z,99.99
2023-03-02T03:12:22.503Z,99.99
2023-03-02T03:13:22.217Z,99.99
2023-03-02T03:14:22.455Z,99.99
2023-03-02T03:15:22.196Z,99.99
2023-03-02T03:16:22.461Z,99.99
2023-03-02T03:17:22.398Z,99.99
2023-03-02T03:18:22.364Z,99.99
2023-03-02T03:19:22.093Z,99.99
2023-03-02T03:20:23.123Z,99.99
2023-03-02T03:21:23.094Z,99.99
2023-03-02T03:22:22.805Z,99.99
2023-03-02T03:23:23.082Z,99.99
2023-03-02T03:24:23.030Z,99.99
2023-03-02T03:25:22.735Z,99.99
2023-03-02T03:26:22.711Z,99.99
2023-03-02T03:27:22.947Z,99.99
2023-03-02T03:28:22.929Z,99.99
2023-03-02T03:29:22.653Z,99.99
2023-03-02T03:30:22.891Z,99.99
2023-03-02T03:31:23.058Z,99.99
2023-03-02T03:32:22.949Z,99.99
2023-03-02T03:49:56.082Z,99.99
2023-03-02T03:50:55.999Z,99.99
2023-03-02T03:51:55.972Z,99.99
2023-03-02T03:52:55.689Z,99.99
2023-03-02T03:53:55.923Z,99.99
2023-03-02T03:54:55.652Z,99.99
2023-03-02T03:55:55.871Z,99.99
2023-03-02T03:56:55.873Z,99.99
2023-03-02T03:57:55.829Z,99.99
2023-03-02T03:58:55.846Z,99.99
2023-03-02T03:59:55.777Z,99.99
2023-03-02T04:00:55.757Z,99.99
2023-03-02T04:01:55.846Z,99.99
2023-03-02T04:02:55.932Z,99.99
2023-03-02T04:03:55.437Z,99.99
2023-03-02T04:04:55.672Z,99.99
2023-03-02T04:05:55.699Z,99.99
2023-03-02T04:06:55.621Z,99.99
2023-03-02T04:07:55.599Z,99.99
2023-03-02T04:08:55.568Z,99.99
2023-03-02T04:09:55.298Z,99.99
2023-03-02T04:10:55.267Z,99.99
2023-03-02T04:11:55.532Z,99.99
2023-03-02T04:12:55.547Z,99.99
2023-03-02T04:13:55.200Z,99.99
2023-03-02T04:14:55.431Z,99.99
2023-03-02T04:15:55.535Z,99.99
2023-03-02T04:16:55.398Z,99.99
2023-03-02T04:17:55.370Z,99.99
2023-03-02T04:18:55.342Z,99.99
2023-03-02T04:19:55.085Z,99.99
2023-03-02T04:20:55.291Z,99.99
2023-03-02T04:21:55.323Z,99.99
2023-03-02T04:22:55.257Z,99.99
2023-03-02T04:23:55.232Z,99.99
2023-03-02T04:24:55.236Z,99.99
2023-03-02T04:25:54.924Z,99.99
2023-03-02T04:26:55.195Z,99.99
2023-03-02T04:27:55.145Z,99.99
2023-03-02T04:28:55.140Z,99.99
2023-03-02T04:29:55.096Z,99.99
2023-03-02T04:30:55.161Z,99.99
2023-03-02T04:31:55.178Z,99.99
2023-03-02T04:32:55.068Z,99.99
2023-03-02T04:33:55.008Z,99.99
2023-03-02T04:34:54.985Z,99.99
2023-03-02T04:35:55.088Z,99.99
2023-03-02T04:36:54.937Z,99.99
2023-03-02T04:37:55.009Z,99.99
2023-03-02T04:38:54.913Z,99.99
2023-03-02T04:39:54.621Z,99.99
2023-03-02T04:40:54.854Z,99.99
2023-03-02T04:41:54.836Z,99.99
2023-03-02T04:42:54.811Z,99.99
2023-03-02T04:43:54.536Z,99.99
2023-03-02T04:44:54.765Z,99.99
2023-03-02T04:45:54.494Z,99.99
2023-03-02T04:46:54.883Z,99.99
2023-03-02T04:47:54.442Z,99.99
2023-03-02T04:48:54.683Z,99.99
2023-03-02T04:49:54.648Z,99.99
2023-03-02T04:50:54.662Z,99.99
2023-03-02T04:51:54.614Z,99.99
2023-03-02T04:52:54.334Z,99.99
2023-03-02T04:53:54.625Z,99.99
2023-03-02T04:54:54.284Z,99.99
2023-03-02T04:55:54.524Z,99.99
2023-03-02T04:56:54.526Z,99.99
2023-03-02T04:57:54.469Z,99.99
2023-03-02T04:58:54.206Z,99.99
2023-03-02T04:59:54.180Z,99.99
2023-03-02T05:00:54.405Z,99.99
2023-03-02T05:01:54.215Z,99.99
2023-03-02T05:02:54.371Z,99.99
2023-03-02T05:03:54.342Z,99.99
2023-03-02T05:04:54.481Z,99.99
2023-03-02T05:05:54.289Z,99.99
2023-03-02T05:06:54.272Z,99.99
2023-03-02T05:07:54.536Z,99.99
2023-03-02T05:08:54.517Z,99.99
2023-03-02T05:09:54.541Z,99.99
2023-03-02T05:10:54.481Z,99.99
2023-03-02T05:11:54.193Z,99.99
2023-03-02T05:12:54.457Z,99.99
2023-03-02T05:13:54.164Z,99.99
2023-03-02T05:14:54.124Z,99.99
2023-03-02T05:15:54.430Z,99.99
2023-03-02T05:16:54.341Z,99.99
2023-03-02T05:17:54.321Z,99.99
2023-03-02T05:18:54.296Z,99.99
2023-03-02T05:19:54.270Z,99.99
2023-03-02T05:20:54.250Z,99.99
2023-03-02T05:21:54.229Z,99.99
2023-03-02T05:22:54.210Z,99.99
2023-03-02T05:23:54.187Z,99.99
2023-03-02T05:24:54.174Z,99.99
2023-03-02T05:25:54.236Z,99.99
2023-03-02T05:26:53.858Z,99.99
2023-03-02T05:27:53.835Z,99.99
2023-03-02T05:28:56.426Z,99.99
2023-03-02T05:29:54.050Z,99.99
2023-03-02T05:30:54.035Z,99.99
2023-03-02T05:31:54.331Z,99.99
2023-03-02T05:32:54.040Z,99.99
2023-03-02T05:33:54.298Z,99.99
2023-03-02T05:34:53.730Z,99.99
2023-03-02T05:35:54.099Z,99.99
2023-03-02T05:36:53.702Z,99.99
2023-03-02T05:37:53.939Z,99.99
2023-03-02T05:38:53.909Z,99.99
2023-03-02T05:39:53.881Z,99.99
2023-03-02T05:40:53.599Z,99.99
2023-03-02T05:41:53.916Z,99.99
2023-03-02T05:42:53.822Z,99.99
2023-03-02T05:43:53.798Z,99.99
2023-03-02T05:44:53.764Z,99.99
2023-03-02T05:45:53.750Z,99.99
2023-03-02T05:46:53.864Z,99.99
2023-03-02T05:47:53.703Z,99.99
2023-03-02T05:48:53.684Z,99.99
2023-03-02T05:49:53.672Z,99.99
2023-03-02T05:50:53.634Z,99.99
2023-03-02T05:51:53.621Z,99.99
2023-03-02T05:52:53.333Z,99.99
2023-03-02T05:53:53.587Z,99.99
2023-03-02T05:54:53.289Z,99.99
2023-03-02T05:55:53.535Z,99.99
2023-03-02T05:56:53.498Z,99.99
2023-03-02T05:57:53.542Z,99.99
2023-03-02T05:58:53.476Z,99.99
2023-03-02T05:59:53.189Z,99.99
2023-03-02T06:00:53.419Z,99.99
2023-03-02T06:01:53.441Z,99.99
2023-03-02T06:02:53.533Z,99.99
2023-03-02T06:03:53.342Z,99.99
2023-03-02T06:04:53.333Z,99.99
2023-03-02T06:05:53.174Z,99.99
2023-03-02T06:06:53.279Z,99.99
2023-03-02T06:07:53.264Z,99.99
2023-03-02T06:08:53.228Z,99.99
2023-03-02T06:09:53.205Z,99.99
2023-03-02T06:10:53.158Z,99.99
2023-03-02T06:11:52.906Z,99.99
2023-03-02T06:12:52.907Z,99.99
2023-03-02T06:13:53.177Z,99.99
2023-03-02T06:14:53.108Z,99.99
2023-03-02T06:15:53.069Z,99.99
2023-03-02T06:16:52.931Z,99.99
2023-03-02T06:17:53.038Z,99.99
2023-03-02T06:18:53.039Z,99.99
2023-03-02T06:19:52.991Z,99.99
2023-03-02T06:20:52.986Z,99.99
2023-03-02T06:21:52.945Z,99.99
2023-03-02T06:22:52.979Z,99.99
2023-03-02T06:23:52.635Z,99.99
2023-03-02T06:24:52.868Z,99.99
2023-03-02T06:25:52.847Z,99.99
2023-03-02T06:26:52.825Z,99.99
2023-03-02T06:27:52.803Z,99.99
2023-03-02T06:28:55.641Z,99.99
2023-03-02T06:29:52.782Z,99.99
2023-03-02T06:30:52.742Z,99.99
2023-03-02T06:31:53.102Z,99.99
2023-03-02T06:32:52.630Z,99.99
2023-03-02T06:33:52.415Z,99.99
2023-03-02T06:34:52.653Z,99.99
2023-03-02T06:35:53.043Z,99.99
2023-03-02T06:36:52.767Z,99.99
2023-03-02T06:37:52.755Z,99.99
2023-03-02T06:38:52.985Z,99.99
2023-03-02T06:39:52.985Z,99.99
2023-03-02T06:40:52.677Z,99.99
2023-03-02T06:41:52.665Z,99.99
2023-03-02T06:42:52.652Z,99.99
2023-03-02T06:43:52.896Z,99.99
2023-03-02T06:44:52.941Z,99.99
2023-03-02T06:45:53.085Z,99.99
2023-03-02T06:46:52.805Z,99.99
2023-03-02T06:47:52.778Z,99.99
2023-03-02T06:48:52.767Z,99.99
2023-03-02T06:49:52.765Z,99.99
2023-03-02T06:50:52.733Z,99.99
2023-03-02T06:51:52.690Z,99.99
2023-03-02T06:52:52.674Z,99.99
2023-03-02T06:53:52.409Z,99.99
2023-03-02T06:54:52.636Z,99.99
2023-03-02T06:55:52.353Z,99.99
2023-03-02T06:56:52.598Z,99.99
2023-03-02T06:57:52.573Z,99.99
2023-03-02T06:58:52.284Z,99.99
2023-03-02T06:59:52.518Z,99.99
2023-03-02T07:00:52.581Z,99.99
2023-03-02T07:01:52.496Z,99.99
2023-03-02T07:02:52.222Z,99.99
2023-03-02T07:03:52.548Z,99.99
2023-03-02T07:04:52.415Z,99.99
2023-03-02T07:05:52.126Z,99.99
2023-03-02T07:06:52.366Z,99.99
2023-03-02T07:07:52.372Z,99.99
2023-03-02T07:08:52.340Z,99.99
2023-03-02T07:09:52.308Z,99.99
2023-03-02T07:10:52.024Z,99.99
2023-03-02T07:11:52.251Z,99.99
2023-03-02T07:12:52.225Z,99.99
2023-03-02T07:13:52.201Z,99.99
2023-03-02T07:14:52.256Z,99.99
2023-03-02T07:15:51.910Z,99.99
2023-03-02T07:16:52.317Z,99.99
2023-03-02T07:17:52.192Z,99.99
2023-03-02T07:18:52.089Z,99.99
2023-03-02T07:19:51.822Z,99.99
2023-03-02T07:20:52.048Z,99.99
2023-03-02T07:21:52.027Z,99.99
2023-03-02T07:22:52.006Z,99.99
2023-03-02T07:23:51.987Z,99.99
2023-03-02T07:24:51.707Z,99.99
2023-03-02T07:25:51.936Z,99.99
2023-03-02T07:26:51.910Z,99.99
2023-03-02T07:27:51.894Z,99.99
2023-03-02T07:28:51.616Z,99.99
2023-03-02T07:29:51.781Z,99.99
2023-03-02T07:30:51.913Z,99.99
2023-03-02T07:31:51.822Z,99.99
2023-03-02T07:32:51.862Z,99.99
2023-03-02T07:33:51.796Z,99.99
2023-03-02T07:34:51.747Z,99.99
2023-03-02T07:35:51.839Z,99.99
2023-03-02T07:36:51.435Z,99.99
2023-03-02T07:37:51.679Z,99.99
2023-03-02T07:38:51.652Z,99.99
2023-03-02T07:39:51.635Z,99.99
2023-03-02T07:40:51.605Z,99.99
2023-03-02T07:41:51.587Z,99.99
2023-03-02T07:42:51.301Z,99.99
2023-03-02T07:43:51.304Z,99.99
2023-03-02T07:44:51.531Z,99.99
2023-03-02T07:45:51.497Z,99.99
2023-03-02T07:46:51.577Z,99.99
2023-03-02T07:47:51.470Z,99.99
2023-03-02T07:48:51.461Z,99.99
2023-03-02T07:49:51.444Z,99.99
2023-03-02T07:50:51.388Z,99.99
2023-03-02T07:51:51.379Z,99.99
2023-03-02T07:52:51.377Z,99.99
2023-03-02T07:53:51.069Z,99.99
2023-03-02T07:54:51.307Z,99.99
2023-03-02T07:55:51.284Z,99.99
2023-03-02T07:56:51.264Z,99.99
2023-03-02T07:57:51.250Z,99.99
2023-03-02T07:58:51.225Z,99.99
2023-03-02T07:59:51.401Z,99.99
2023-03-02T08:00:51.195Z,99.99
2023-03-02T08:01:51.748Z,99.99
2023-03-02T08:02:51.074Z,99.99
2023-03-02T08:03:51.108Z,99.99
2023-03-02T08:04:51.120Z,99.99
2023-03-02T08:05:51.234Z,99.99
2023-03-02T08:06:51.056Z,99.99
2023-03-02T08:07:51.041Z,99.99
2023-03-02T08:08:51.014Z,99.99
2023-03-02T08:09:51.007Z,99.99
2023-03-02T08:10:50.706Z,99.99
2023-03-02T08:11:50.948Z,99.99
2023-03-02T08:12:50.929Z,99.99
2023-03-02T08:13:50.894Z,99.99
2023-03-02T08:14:50.629Z,99.99
2023-03-02T08:15:50.948Z,99.99
2023-03-02T08:16:50.836Z,99.99
2023-03-02T08:17:50.565Z,99.99
2023-03-02T08:18:50.566Z,99.99
2023-03-02T08:19:50.805Z,99.99
2023-03-02T08:20:50.517Z,99.99
2023-03-02T08:21:50.860Z,99.99
2023-03-02T08:22:50.710Z,99.99
2023-03-02T08:23:50.861Z,99.99
2023-03-02T08:24:50.684Z,99.99
2023-03-02T08:25:50.642Z,99.99
2023-03-02T08:26:50.625Z,99.99
2023-03-02T08:27:50.638Z,99.99
2023-03-02T08:28:50.596Z,99.99
2023-03-02T08:29:50.572Z,99.99
2023-03-02T08:30:50.572Z,99.99
2023-03-02T08:31:50.753Z,99.99
2023-03-02T08:32:50.708Z,99.99
2023-03-02T08:33:50.491Z,99.99
2023-03-02T08:34:50.461Z,99.99
2023-03-02T08:35:52.736Z,99.99
2023-03-02T08:36:50.192Z,99.99
2023-03-02T08:37:50.424Z,99.99
2023-03-02T08:38:50.238Z,99.99
2023-03-02T08:39:50.148Z,99.99
2023-03-02T08:40:50.376Z,99.99
2023-03-02T08:41:50.314Z,99.99
2023-03-02T08:42:50.300Z,99.99
2023-03-02T08:43:50.277Z,99.99
2023-03-02T08:44:50.290Z,99.99
2023-03-02T08:45:50.350Z,99.99
2023-03-02T08:46:50.232Z,99.99
2023-03-02T08:47:49.928Z,99.99
2023-03-02T08:48:50.263Z,99.99
2023-03-02T08:49:50.804Z,99.99
2023-03-02T08:50:50.178Z,99.99
2023-03-02T08:51:49.865Z,99.99
2023-03-02T08:52:50.211Z,99.99
2023-03-02T08:53:50.092Z,99.99
2023-03-02T08:54:50.184Z,99.99
2023-03-02T08:55:50.033Z,99.99
2023-03-02T08:56:49.766Z,99.99
2023-03-02T08:57:49.736Z,99.99
2023-03-02T08:58:49.718Z,99.99
2023-03-02T08:59:49.948Z,99.99
2023-03-02T09:00:50.050Z,99.99
2023-03-02T09:01:50.093Z,99.99
2023-03-02T09:02:49.917Z,99.99
2023-03-02T09:03:50.962Z,99.99
2023-03-02T09:04:49.988Z,99.99
2023-03-02T09:05:49.852Z,99.99
2023-03-02T09:06:49.550Z,99.99
2023-03-02T09:07:49.528Z,99.99
2023-03-02T09:08:49.536Z,99.99
2023-03-02T09:09:49.792Z,99.99
2023-03-02T09:10:49.734Z,99.99
2023-03-02T09:11:49.713Z,99.99
2023-03-02T09:12:49.684Z,99.99
2023-03-02T09:13:49.669Z,99.99
2023-03-02T09:14:49.642Z,99.99
2023-03-02T09:15:49.645Z,99.99
2023-03-02T09:16:49.686Z,99.99
2023-03-02T09:17:49.582Z,99.99
2023-03-02T09:18:49.587Z,99.99
2023-03-02T09:19:49.560Z,99.99
2023-03-02T09:20:49.520Z,99.99
2023-03-02T09:21:49.533Z,99.99
2023-03-02T09:22:49.486Z,99.99
2023-03-02T09:23:49.341Z,99.99
2023-03-02T09:24:49.589Z,99.99
2023-03-02T09:25:49.564Z,99.99
2023-03-02T09:26:49.506Z,99.99
2023-03-02T09:27:49.498Z,99.99
2023-03-02T09:28:49.480Z,99.99
2023-03-02T09:29:49.479Z,99.99
2023-03-02T09:30:49.441Z,99.99
2023-03-02T09:31:49.532Z,99.99
2023-03-02T09:32:49.756Z,99.99
2023-03-02T09:33:49.389Z,99.99
2023-03-02T09:34:49.114Z,99.99
2023-03-02T09:35:49.367Z,99.99
2023-03-02T09:36:49.320Z,99.99
2023-03-02T09:37:49.437Z,99.99
2023-03-02T09:38:49.388Z,99.99
2023-03-02T09:39:49.355Z,99.99
2023-03-02T09:40:49.297Z,99.99
2023-03-02T09:41:49.314Z,99.99
2023-03-02T09:42:49.226Z,99.99
2023-03-02T09:43:49.198Z,99.99
2023-03-02T09:44:48.914Z,99.99
2023-03-02T09:45:48.987Z,99.99
2023-03-02T09:46:49.144Z,99.99
2023-03-02T09:47:48.870Z,99.99
2023-03-02T09:48:48.847Z,99.99
2023-03-02T09:49:49.095Z,99.99
2023-03-02T09:50:49.065Z,99.99
2023-03-02T09:51:48.785Z,99.99
2023-03-02T09:52:49.072Z,99.99
2023-03-02T09:53:49.014Z,99.99
2023-03-02T09:54:48.735Z,99.62
2023-03-02T09:55:48.965Z,98.86
2023-03-02T09:56:48.990Z,97.82
2023-03-02T09:57:49.055Z,97.06
2023-03-02T09:58:48.911Z,95.74
2023-03-02T09:59:48.642Z,94.7
2023-03-02T10:00:48.875Z,93.75
2023-03-02T10:01:48.855Z,92.9
2023-03-02T10:02:48.962Z,92.8
2023-03-02T10:03:49.136Z,92.24
2023-03-02T10:04:48.654Z,91.48
2023-03-02T10:05:48.835Z,91.76
2023-03-02T10:06:48.778Z,90.81
2023-03-02T10:07:48.762Z,90.53
2023-03-02T10:08:48.730Z,89.87
2023-03-02T10:09:48.708Z,90.06
2023-03-02T10:10:48.703Z,89.2
2023-03-02T10:11:48.675Z,89.49
2023-03-02T10:12:48.548Z,89.58
2023-03-02T10:13:50.093Z,89.39
2023-03-02T10:14:48.626Z,89.06
2023-03-02T10:15:48.832Z,88.49
2023-03-02T10:16:48.616Z,88.21
2023-03-02T10:17:48.616Z,88.21
2023-03-02T10:18:48.666Z,87.83
2023-03-02T10:19:48.544Z,86.22
2023-03-02T10:20:48.516Z,85.65
2023-03-02T10:21:48.540Z,85.55
2023-03-02T10:22:48.475Z,85.88
2023-03-02T10:23:48.464Z,84.65
2023-03-02T10:24:48.211Z,84.84
2023-03-02T10:25:48.174Z,84.17
2023-03-02T10:26:48.436Z,83.51
2023-03-02T10:27:48.284Z,83.13
2023-03-02T10:28:48.441Z,82.94
2023-03-02T10:29:48.629Z,83.23
2023-03-02T10:30:48.193Z,83.13
2023-03-02T10:31:48.315Z,82.56
2023-03-02T10:32:48.307Z,83.42
2023-03-02T10:33:48.034Z,82.18
2023-03-02T10:34:48.350Z,82.85
2023-03-02T10:35:48.379Z,82.18
2023-03-02T10:36:48.238Z,81.14
2023-03-02T10:37:48.328Z,80.57
2023-03-02T10:38:48.195Z,80.57
2023-03-02T10:39:48.212Z,79.91
2023-03-02T10:40:48.158Z,79.91
2023-03-02T10:41:48.166Z,79.63
2023-03-02T10:42:47.878Z,79.72
2023-03-02T10:43:48.105Z,79.28
2023-03-02T10:44:48.176Z,79.25
2023-03-02T10:45:48.255Z,79.06
2023-03-02T10:46:48.207Z,78.81
2023-03-02T10:47:48.057Z,79.1
2023-03-02T10:48:51.907Z,78.53
2023-03-02T10:49:48.008Z,78.62
2023-03-02T10:50:48.007Z,78.43
2023-03-02T10:51:47.727Z,78.34
2023-03-02T10:53:02.519Z,77.86
2023-03-02T10:53:47.939Z,77.29
2023-03-02T10:54:47.922Z,77.11
2023-03-02T10:55:47.664Z,77.29
2023-03-02T10:56:47.888Z,77.29
2023-03-02T10:57:47.878Z,76.63
2023-03-02T10:58:47.849Z,76.86
2023-03-02T10:59:47.905Z,76.67
2023-03-02T11:00:47.848Z,76.86
2023-03-02T11:01:47.951Z,76.48
2023-03-02T11:02:47.786Z,76.01
2023-03-02T11:03:47.515Z,76.2
2023-03-02T11:04:47.883Z,75.24
2023-03-02T11:05:47.790Z,75.15
2023-03-02T11:06:48.316Z,74.77
2023-03-02T11:07:48.282Z,74.49
2023-03-02T11:08:48.317Z,74.01
2023-03-02T11:09:48.238Z,73.54
2023-03-02T11:10:47.956Z,73.25
2023-03-02T11:11:48.270Z,73.16
2023-03-02T11:12:48.173Z,73.16
2023-03-02T11:13:47.893Z,73.92
2023-03-02T11:14:48.152Z,73.92
2023-03-02T11:15:48.262Z,73.82
2023-03-02T11:16:48.226Z,73.63
2023-03-02T11:17:48.122Z,73.54
2023-03-02T11:18:47.813Z,72.49
2023-03-02T11:19:47.810Z,72.59
2023-03-02T11:20:48.038Z,72.78
2023-03-02T11:21:47.774Z,72.88
2023-03-02T11:22:48.008Z,73.07
2023-03-02T11:23:47.739Z,72.88
2023-03-02T11:24:47.973Z,72.68
2023-03-02T11:25:47.967Z,73.16
2023-03-02T11:26:47.715Z,72.4
2023-03-02T11:27:47.681Z,72.11
2023-03-02T11:28:47.649Z,72.49
2023-03-02T11:29:47.916Z,72.59
2023-03-02T11:30:47.619Z,72.4
2023-03-02T11:31:47.849Z,72.78
2023-03-02T11:32:48.059Z,72.49
2023-03-02T11:33:48.066Z,73.07
2023-03-02T11:34:47.820Z,72.59
2023-03-02T11:35:47.937Z,72.78
2023-03-02T11:36:47.789Z,72.49
2023-03-02T11:37:47.528Z,72.59
2023-03-02T11:38:47.754Z,72.88
2023-03-02T11:39:57.535Z,72.25
2023-03-02T11:40:49.394Z,71.73
2023-03-02T11:41:47.746Z,71.36
2023-03-02T11:42:47.698Z,72.21
2023-03-02T11:43:47.671Z,72.4
2023-03-02T11:44:47.666Z,72.11
2023-03-02T11:45:47.647Z,71.55
2023-03-02T11:46:47.758Z,71.26
2023-03-02T11:47:57.373Z,71.36
2023-03-02T11:48:47.634Z,72.11
2023-03-02T11:49:47.602Z,71.83
2023-03-02T11:50:47.578Z,72.02
2023-03-02T11:51:59.834Z,72.21
2023-03-02T11:52:47.531Z,72.11
2023-03-02T11:53:47.385Z,71.45
2023-03-02T11:54:47.502Z,71.26
2023-03-02T11:55:47.500Z,71.55
2023-03-02T11:56:47.211Z,71.83
2023-03-02T11:57:47.191Z,72.3
2023-03-02T11:58:47.440Z,72.88
2023-03-02T11:59:47.422Z,72.88
2023-03-02T12:00:47.409Z,72.97
2023-03-02T12:01:47.562Z,72.93
2023-03-02T12:02:47.378Z,73.12
2023-03-02T12:03:47.384Z,73.5
2023-03-02T12:04:47.106Z,73.6
2023-03-02T12:05:47.569Z,74.16
2023-03-02T12:06:47.307Z,74.73
2023-03-02T12:07:47.189Z,74.73
2023-03-02T12:08:47.407Z,74.64
2023-03-02T12:09:47.260Z,74.73
2023-03-02T12:10:47.242Z,75.21
2023-03-02T12:11:47.217Z,74.73
2023-03-02T12:12:47.216Z,75.02
2023-03-02T12:13:47.185Z,75.31
2023-03-02T12:14:46.917Z,75.78
2023-03-02T12:15:47.158Z,75.59
2023-03-02T12:16:47.209Z,75.31
2023-03-02T12:17:47.189Z,75.49
2023-03-02T12:18:47.113Z,75.49
2023-03-02T12:19:47.097Z,75.4
2023-03-02T12:20:47.266Z,75.59
2023-03-02T12:21:47.085Z,75.59
2023-03-02T12:22:47.044Z,75.59
2023-03-02T12:23:47.028Z,76.15
2023-03-02T12:24:47.015Z,75.59
2023-03-02T12:25:46.752Z,75.49
2023-03-02T12:26:46.719Z,75.59
2023-03-02T12:27:46.740Z,75.78
2023-03-02T12:28:46.944Z,75.49
2023-03-02T12:29:46.933Z,75.49
2023-03-02T12:30:46.909Z,76.06
2023-03-02T12:31:47.086Z,76.06
2023-03-02T12:32:46.855Z,76.34
2023-03-02T12:33:46.890Z,77.11
2023-03-02T12:34:46.856Z,77.01
2023-03-02T12:35:46.988Z,77.58
2023-03-02T12:36:46.934Z,77.67
2023-03-02T12:37:46.827Z,77.48
2023-03-02T12:38:46.618Z,78.05
2023-03-02T12:39:46.766Z,78.24
2023-03-02T12:40:46.763Z,78.34
2023-03-02T12:41:46.502Z,79.1
2023-03-02T12:42:46.717Z,79.28
2023-03-02T12:43:46.444Z,79.57
2023-03-02T12:44:46.420Z,79.28
2023-03-02T12:45:46.755Z,79.1
2023-03-02T12:46:46.402Z,79.28
2023-03-02T12:47:47.864Z,79.38
2023-03-02T12:48:47.829Z,79.38
2023-03-02T12:49:46.629Z,79.76
2023-03-02T12:50:46.349Z,79.57
2023-03-02T12:51:46.732Z,79.85
2023-03-02T12:52:46.343Z,79.66
2023-03-02T12:53:46.599Z,79.66
2023-03-02T12:54:46.517Z,79.76
2023-03-02T12:55:46.595Z,80.24
2023-03-02T12:56:47.002Z,80.24
2023-03-02T12:57:46.956Z,80.04
2023-03-02T12:58:46.702Z,79.76
2023-03-02T12:59:46.913Z,80.14
2023-03-02T13:00:46.738Z,80.62
2023-03-02T13:01:46.876Z,80.52
2023-03-02T13:02:46.931Z,80.33
2023-03-02T13:03:46.706Z,79.38
2023-03-02T13:04:46.821Z,79.95
2023-03-02T13:05:46.548Z,80.43
2023-03-02T13:06:46.788Z,80.62
2023-03-02T13:07:46.771Z,80.52
2023-03-02T13:08:46.858Z,80.33
2023-03-02T13:09:58.358Z,80.62